Time;durP1;ratioP1;P1;durP2;ratioP2;P2;SDS_P1;SDS_P2;PMS_P1;PMS_P2;Temp;Humidity;BMP_temperature;BMP_pressure;BME280_temperature;BME280_humidity;BME280_pressure;Samples;Min_cycle;Max_cycle;Signal;HPM_P1;HPM_P2
2021/12/23 00:01:20;;;;;;;0.00;0.00;;;-2.30;99.90;;;;;;4981236;28;20042;-65
2021/12/23 00:03:46;;;;;;;0.00;0.00;;;-2.30;99.90;;;;;;4979931;28;20587;-65
2021/12/23 00:06:12;;;;;;;0.00;0.00;;;-2.30;99.90;;;;;;4981586;28;20034;-62
2021/12/23 00:08:37;;;;;;;0.00;0.00;;;-2.30;99.90;;;;;;4982034;28;20092;-67
2021/12/23 00:11:03;;;;;;;0.00;0.00;;;-2.30;99.90;;;;;;4980784;28;20329;-67
2021/12/23 00:13:28;;;;;;;0.00;0.00;;;-2.50;99.90;;;;;;4982058;28;20120;-67
2021/12/23 00:23:49;;;;;;;0.80;0.80;;;-1.70;99.90;;;;;;4980913;28;20054;-67
2021/12/23 00:26:15;;;;;;;0.00;0.00;;;-2.30;99.90;;;;;;4981618;28;20046;-67
2021/12/23 00:28:41;;;;;;;0.03;0.03;;;-2.30;99.90;;;;;;4986633;28;20049;-68
2021/12/23 00:31:06;;;;;;;0.00;0.00;;;-2.40;99.90;;;;;;4985773;28;20065;-68
2021/12/23 00:33:35;;;;;;;0.00;0.00;;;-2.30;99.90;;;;;;4995372;28;20692;-67
2021/12/23 00:36:04;;;;;;;0.00;0.00;;;-2.30;99.90;;;;;;4981768;28;20101;-67
2021/12/23 00:38:39;;;;;;;0.00;0.00;;;-2.20;99.90;;;;;;4981169;28;20088;-68
2021/12/23 00:41:05;;;;;;;0.00;0.00;;;-2.20;99.90;;;;;;4979983;28;20108;-65
2021/12/23 00:43:32;;;;;;;0.95;0.95;;;-2.20;99.90;;;;;;4980306;28;20038;-65
2021/12/23 00:45:58;;;;;;;0.00;0.00;;;-2.20;99.90;;;;;;4981489;28;20725;-65
2021/12/23 00:48:25;;;;;;;2.53;1.75;;;-2.30;99.90;;;;;;4980505;28;20113;-65
2021/12/23 00:50:51;;;;;;;0.00;0.00;;;-0.70;99.90;;;;;;4979847;28;20145;-65
2021/12/23 00:53:19;;;;;;;0.00;0.00;;;-2.30;99.90;;;;;;4980952;28;20050;-68
2021/12/23 00:55:49;;;;;;;0.43;0.43;;;-1.90;99.90;;;;;;4980655;28;20046;-68
2021/12/23 00:58:15;;;;;;;0.00;0.00;;;-2.10;99.90;;;;;;4980202;28;20046;-67
2021/12/23 01:00:41;;;;;;;0.00;0.00;;;-2.10;99.90;;;;;;4980558;28;20058;-67
2021/12/23 01:03:07;;;;;;;0.00;0.00;;;-2.10;99.90;;;;;;4980376;28;20057;-67
2021/12/23 01:05:33;;;;;;;0.00;0.00;;;-2.30;99.90;;;;;;4981232;28;20051;-65
2021/12/23 01:07:59;;;;;;;0.00;0.00;;;-2.00;99.90;;;;;;4979879;28;20054;-65
2021/12/23 01:10:25;;;;;;;0.00;0.00;;;-2.00;99.90;;;;;;4980339;28;20100;-64
2021/12/23 01:12:58;;;;;;;0.00;0.00;;;-5.30;99.90;;;;;;4980537;28;20151;-65
2021/12/23 01:17:55;;;;;;;0.32;0.32;;;-1.90;99.90;;;;;;4978813;28;20046;-65
2021/12/23 01:20:28;;;;;;;0.00;0.00;;;-0.90;99.90;;;;;;4980585;28;20730;-65
2021/12/23 01:22:56;;;;;;;0.00;0.00;;;-1.90;99.90;;;;;;4980182;28;20054;-66
2021/12/23 01:25:22;;;;;;;0.00;0.00;;;-1.80;99.90;;;;;;4979496;28;20056;-65
2021/12/23 01:27:48;;;;;;;0.00;0.00;;;-1.80;99.90;;;;;;4982745;28;20696;-65
2021/12/23 01:30:17;;;;;;;0.00;0.00;;;-1.80;99.90;;;;;;4988942;28;20429;-64
2021/12/23 01:32:44;;;;;;;0.00;0.00;;;-1.80;99.90;;;;;;4978016;28;20043;-65
2021/12/23 01:35:10;;;;;;;0.00;0.00;;;-1.10;99.90;;;;;;4980480;28;20042;-66
2021/12/23 01:37:36;;;;;;;0.00;0.00;;;-1.70;99.90;;;;;;4979961;28;20513;-66
2021/12/23 01:40:03;;;;;;;0.00;0.00;;;-1.70;99.90;;;;;;4980407;28;20035;-66
2021/12/23 01:42:28;;;;;;;0.00;0.00;;;-2.40;99.90;;;;;;4979567;28;20567;-66
2021/12/23 01:44:54;;;;;;;0.55;0.55;;;-1.70;99.90;;;;;;4978514;28;20046;-65
2021/12/23 01:47:20;;;;;;;0.00;0.00;;;-1.60;99.90;;;;;;4979584;28;20101;-66
2021/12/23 01:49:45;;;;;;;0.00;0.00;;;-1.70;99.90;;;;;;4979552;28;20038;-66
2021/12/23 01:52:11;;;;;;;0.00;0.00;;;-1.30;99.90;;;;;;4978867;28;20054;-66
2021/12/23 01:54:37;;;;;;;0.00;0.00;;;-1.70;99.90;;;;;;4979956;28;20108;-65
2021/12/23 01:57:03;;;;;;;0.63;0.63;;;-1.70;99.90;;;;;;4980293;28;20046;-62
2021/12/23 01:59:32;;;;;;;0.00;0.00;;;-1.70;99.90;;;;;;4980062;28;20506;-65
2021/12/23 02:01:57;;;;;;;0.00;0.00;;;-1.70;99.90;;;;;;4978397;28;20053;-66
2021/12/23 02:04:23;;;;;;;0.00;0.00;;;-1.70;99.90;;;;;;4979511;28;20034;-66
2021/12/23 02:06:49;;;;;;;0.00;0.00;;;-1.70;99.90;;;;;;4979913;28;20053;-65
2021/12/23 02:09:15;;;;;;;0.00;0.00;;;-1.30;99.90;;;;;;4979687;28;20242;-65
2021/12/23 02:11:41;;;;;;;0.00;0.00;;;-1.80;99.90;;;;;;4978452;28;20058;-64
2021/12/23 02:14:07;;;;;;;0.00;0.00;;;-1.70;99.90;;;;;;4994440;28;20051;-65
2021/12/23 02:16:33;;;;;;;0.00;0.00;;;-1.70;99.90;;;;;;4978759;28;20110;-65
2021/12/23 02:18:59;;;;;;;0.00;0.00;;;-1.70;99.90;;;;;;4979393;28;20129;-67
2021/12/23 02:21:24;;;;;;;0.00;0.00;;;-1.70;99.90;;;;;;4977445;28;20066;-65
2021/12/23 02:23:50;;;;;;;0.00;0.00;;;-1.60;99.90;;;;;;4979418;28;20444;-65
2021/12/23 02:26:15;;;;;;;0.00;0.00;;;-1.60;99.90;;;;;;4979127;28;20383;-66
2021/12/23 02:28:41;;;;;;;0.00;0.00;;;-1.60;99.90;;;;;;4983694;28;20046;-65
2021/12/23 02:31:07;;;;;;;0.00;0.00;;;-1.50;99.90;;;;;;4984763;28;20046;-65
2021/12/23 02:33:34;;;;;;;0.00;0.00;;;-1.50;99.90;;;;;;4978974;28;20053;-62
2021/12/23 02:36:00;;;;;;;0.00;0.00;;;-1.40;99.90;;;;;;4978137;28;20046;-66
2021/12/23 02:38:26;;;;;;;0.00;0.00;;;-1.40;99.90;;;;;;4978134;28;20943;-65
2021/12/23 02:40:53;;;;;;;0.00;0.00;;;-1.70;99.90;;;;;;4978775;28;20086;-65
2021/12/23 02:43:24;;;;;;;0.00;0.00;;;-1.40;99.90;;;;;;4979138;28;20038;-65
2021/12/23 02:45:53;;;;;;;0.00;0.00;;;-1.60;99.90;;;;;;4978891;28;20065;-65
2021/12/23 02:48:23;;;;;;;0.25;0.25;;;-0.30;99.90;;;;;;4977882;28;20046;-66
2021/12/23 02:50:51;;;;;;;0.10;0.10;;;-1.40;99.90;;;;;;4979359;28;20437;-65
2021/12/23 02:53:18;;;;;;;0.00;0.00;;;-0.70;99.90;;;;;;4978905;28;20408;-66
2021/12/23 02:55:45;;;;;;;0.00;0.00;;;-1.30;99.90;;;;;;4977939;28;20050;-65
2021/12/23 02:58:11;;;;;;;0.00;0.00;;;-1.30;99.90;;;;;;4979140;28;20046;-66
2021/12/23 03:00:38;;;;;;;0.20;0.20;;;-1.20;99.90;;;;;;4977783;28;20158;-66
2021/12/23 03:03:04;;;;;;;0.00;0.00;;;-1.10;99.90;;;;;;4977815;28;20050;-65
2021/12/23 03:05:30;;;;;;;0.63;0.63;;;-1.00;99.90;;;;;;4978420;28;20034;-65
2021/12/23 03:07:56;;;;;;;0.00;0.00;;;-0.90;99.90;;;;;;4978757;28;20058;-65
2021/12/23 03:10:22;;;;;;;2.47;1.20;;;-1.00;99.90;;;;;;4978752;28;20046;-65
2021/12/23 03:12:48;;;;;;;0.00;0.00;;;-0.60;99.90;;;;;;4978337;28;20062;-65
2021/12/23 03:15:14;;;;;;;0.43;0.43;;;-0.90;99.90;;;;;;4976646;28;20050;-66
2021/12/23 03:17:40;;;;;;;0.10;0.10;;;-1.00;99.90;;;;;;4978421;28;20043;-65
2021/12/23 03:20:06;;;;;;;0.10;0.10;;;-1.00;99.90;;;;;;4978772;28;20050;-65
2021/12/23 03:22:32;;;;;;;0.00;0.00;;;-1.00;99.90;;;;;;4978445;28;20181;-65
2021/12/23 03:24:57;;;;;;;0.00;0.00;;;-1.70;99.90;;;;;;4977153;28;20137;-66
2021/12/23 03:27:23;;;;;;;0.10;0.10;;;-1.20;99.90;;;;;;4978399;28;20050;-65
2021/12/23 03:29:49;;;;;;;0.35;0.35;;;-1.10;99.90;;;;;;4989346;28;20075;-65
2021/12/23 03:32:15;;;;;;;0.10;0.10;;;-0.80;99.90;;;;;;4977177;28;20046;-65
2021/12/23 03:34:40;;;;;;;0.00;0.00;;;-1.20;99.90;;;;;;4978521;28;20069;-62
2021/12/23 03:37:06;;;;;;;0.00;0.00;;;-1.20;99.90;;;;;;4978427;28;20046;-65
2021/12/23 03:39:32;;;;;;;0.00;0.00;;;-1.20;99.90;;;;;;4978844;28;20062;-65
2021/12/23 03:41:58;;;;;;;0.00;0.00;;;-1.20;99.90;;;;;;4978130;28;20397;-66
2021/12/23 03:44:24;;;;;;;0.00;0.00;;;-0.90;99.90;;;;;;4978686;28;20046;-65
2021/12/23 03:46:50;;;;;;;0.00;0.00;;;-1.20;99.90;;;;;;4977928;28;20076;-65
2021/12/23 03:49:15;;;;;;;0.00;0.00;;;-1.20;99.90;;;;;;4978197;28;20050;-65
2021/12/23 03:51:41;;;;;;;0.00;0.00;;;-1.10;99.90;;;;;;4977447;28;20291;-65
2021/12/23 03:54:07;;;;;;;0.10;0.10;;;-1.20;99.90;;;;;;4978868;28;20049;-65
2021/12/23 03:56:32;;;;;;;3.40;2.55;;;-1.20;99.90;;;;;;4979005;28;20050;-65
2021/12/23 03:58:58;;;;;;;0.10;0.10;;;-1.20;99.90;;;;;;4980527;28;20069;-66
2021/12/23 04:01:28;;;;;;;0.00;0.00;;;-0.90;99.90;;;;;;4980022;28;20136;-68
2021/12/23 04:03:54;;;;;;;0.00;0.00;;;-1.20;99.90;;;;;;4981935;28;20117;-67
2021/12/23 04:06:21;;;;;;;0.00;0.00;;;-1.20;99.90;;;;;;4981886;28;20058;-67
2021/12/23 04:08:47;;;;;;;0.00;0.00;;;-1.20;99.90;;;;;;4981841;28;20038;-67
2021/12/23 04:11:13;;;;;;;0.00;0.00;;;-0.90;99.90;;;;;;4981492;28;20124;-67
2021/12/23 04:13:39;;;;;;;0.13;0.13;;;-1.40;99.90;;;;;;4981867;28;20615;-66
2021/12/23 04:16:05;;;;;;;0.03;0.03;;;-1.20;99.90;;;;;;4980626;28;20077;-66
2021/12/23 04:18:31;;;;;;;0.00;0.00;;;-1.10;99.90;;;;;;4981853;28;20136;-66
2021/12/23 04:20:57;;;;;;;0.00;0.00;;;-1.10;99.90;;;;;;4981294;28;20082;-66
2021/12/23 04:23:30;;;;;;;0.03;0.03;;;-1.10;99.90;;;;;;4981776;28;20608;-66
2021/12/23 04:25:56;;;;;;;0.08;0.08;;;-1.10;99.90;;;;;;4981598;28;20035;-65
2021/12/23 04:28:23;;;;;;;1.13;1.13;;;-1.10;99.90;;;;;;4982291;28;20061;-66
2021/12/23 04:30:50;;;;;;;0.00;0.00;;;-1.10;99.90;;;;;;4989626;28;20039;-66
2021/12/23 04:33:16;;;;;;;0.00;0.00;;;-1.10;99.90;;;;;;4980463;28;20092;-66
2021/12/23 04:35:41;;;;;;;3.20;1.08;;;-1.10;99.90;;;;;;4981300;28;20098;-66
2021/12/23 04:38:07;;;;;;;0.80;0.63;;;-1.00;99.90;;;;;;4980641;28;20122;-65
2021/12/23 04:40:37;;;;;;;0.47;0.47;;;-1.00;99.90;;;;;;4981653;28;20041;-66
2021/12/23 04:43:05;;;;;;;0.00;0.00;;;-0.90;99.90;;;;;;4980984;28;20125;-65
2021/12/23 04:45:32;;;;;;;0.00;0.00;;;-1.50;99.90;;;;;;4981006;28;20540;-66
2021/12/23 04:47:57;;;;;;;0.00;0.00;;;-1.00;99.90;;;;;;4980176;28;20050;-66
2021/12/23 04:50:23;;;;;;;0.00;0.00;;;-1.10;99.90;;;;;;4979449;28;20046;-65
2021/12/23 04:52:51;;;;;;;0.00;0.00;;;-1.00;99.90;;;;;;4979786;28;20057;-65
2021/12/23 04:55:17;;;;;;;0.00;0.00;;;-1.00;99.90;;;;;;4980400;28;20074;-66
2021/12/23 04:57:43;;;;;;;0.32;0.32;;;-1.00;99.90;;;;;;4980965;28;20096;-65
2021/12/23 05:00:14;;;;;;;0.43;0.43;;;-1.10;99.90;;;;;;4981090;28;20056;-66
2021/12/23 05:02:40;;;;;;;1.20;1.10;;;-1.10;99.90;;;;;;4978973;28;20042;-66
2021/12/23 05:05:06;;;;;;;0.00;0.00;;;-1.00;99.90;;;;;;4979973;28;20505;-66
2021/12/23 05:07:32;;;;;;;0.00;0.00;;;-1.10;99.90;;;;;;4980600;28;20101;-66
2021/12/23 05:09:57;;;;;;;0.00;0.00;;;-1.00;99.90;;;;;;4981248;28;20093;-65
2021/12/23 05:12:23;;;;;;;0.28;0.28;;;-1.30;99.90;;;;;;4979923;28;20573;-66
2021/12/23 05:14:49;;;;;;;0.00;0.00;;;0.70;99.90;;;;;;4963005;28;20046;-65
2021/12/23 05:17:14;;;;;;;0.03;0.03;;;-1.00;99.90;;;;;;4979507;28;20073;-65
2021/12/23 05:19:41;;;;;;;0.98;0.98;;;-1.00;99.90;;;;;;4980462;28;20111;-62
2021/12/23 05:22:07;;;;;;;0.00;0.00;;;-1.10;99.90;;;;;;4979690;28;20066;-65
2021/12/23 05:24:33;;;;;;;0.00;0.00;;;-1.00;99.90;;;;;;4980885;28;20513;-65
2021/12/23 05:26:59;;;;;;;0.00;0.00;;;-1.00;99.90;;;;;;4980523;28;20046;-65
2021/12/23 05:29:25;;;;;;;0.10;0.10;;;-1.00;99.90;;;;;;4990881;28;20601;-65
2021/12/23 05:31:51;;;;;;;0.00;0.00;;;-1.00;99.90;;;;;;4977588;28;20058;-65
2021/12/23 05:34:16;;;;;;;0.00;0.00;;;-0.90;99.90;;;;;;4980349;28;20056;-65
2021/12/23 05:36:42;;;;;;;0.00;0.00;;;-0.90;99.90;;;;;;4979309;28;20042;-67
2021/12/23 05:39:08;;;;;;;0.00;0.00;;;-0.90;99.90;;;;;;4980053;28;20047;-67
2021/12/23 05:41:34;;;;;;;0.00;0.00;;;-0.70;99.90;;;;;;4978970;28;20561;-68
2021/12/23 05:44:00;;;;;;;0.00;0.00;;;-0.90;99.90;;;;;;4979020;28;20039;-67
2021/12/23 05:46:26;;;;;;;0.00;0.00;;;-0.90;99.90;;;;;;4979559;28;20101;-67
2021/12/23 05:48:52;;;;;;;0.00;0.00;;;-0.80;99.90;;;;;;4979865;28;20513;-68
2021/12/23 05:51:18;;;;;;;0.20;0.20;;;-0.80;99.90;;;;;;4978873;28;20042;-65
2021/12/23 05:53:44;;;;;;;0.00;0.00;;;-0.90;99.90;;;;;;4979822;28;20129;-65
2021/12/23 05:56:09;;;;;;;0.00;0.00;;;-0.90;99.90;;;;;;4979927;28;20837;-66
2021/12/23 05:58:35;;;;;;;0.00;0.00;;;0.40;99.90;;;;;;4979840;28;20046;-65
2021/12/23 06:01:01;;;;;;;0.00;0.00;;;-0.80;99.90;;;;;;4978742;28;20046;-66
2021/12/23 06:03:27;;;;;;;0.00;0.00;;;-0.80;99.90;;;;;;4979204;28;20113;-65
2021/12/23 06:05:53;;;;;;;6.95;2.15;;;-0.80;99.90;;;;;;4979435;28;20355;-65
2021/12/23 06:08:18;;;;;;;0.55;0.50;;;-0.40;99.90;;;;;;4979969;28;20038;-65
2021/12/23 06:10:44;;;;;;;0.13;0.13;;;-0.40;99.90;;;;;;4979020;28;20065;-65
2021/12/23 06:13:10;;;;;;;0.00;0.00;;;-0.90;99.90;;;;;;4979450;28;20416;-65
2021/12/23 06:15:36;;;;;;;0.00;0.00;;;-0.80;99.90;;;;;;4979533;28;20042;-65
2021/12/23 06:18:02;;;;;;;0.30;0.30;;;-0.80;99.90;;;;;;4979126;28;20038;-65
2021/12/23 06:20:28;;;;;;;0.10;0.10;;;0.40;99.90;;;;;;4979252;28;20057;-65
2021/12/23 06:22:54;;;;;;;0.00;0.00;;;-0.80;99.90;;;;;;4979952;28;20207;-67
2021/12/23 06:25:19;;;;;;;0.00;0.00;;;-0.80;99.90;;;;;;4979299;28;20618;-69
2021/12/23 06:27:45;;;;;;;1.23;1.23;;;-0.80;99.90;;;;;;4980106;28;20567;-67
2021/12/23 06:32:44;;;;;;;1.30;1.27;;;-0.80;99.90;;;;;;4978552;28;20138;-68
2021/12/23 06:35:11;;;;;;;0.00;0.00;;;-0.80;99.90;;;;;;4979688;28;20046;-67
2021/12/23 06:37:37;;;;;;;0.00;0.00;;;-0.80;99.90;;;;;;4978537;28;20062;-65
2021/12/23 06:40:04;;;;;;;0.00;0.00;;;-0.80;99.90;;;;;;4979135;28;20097;-65
2021/12/23 06:42:30;;;;;;;0.00;0.00;;;-0.80;99.90;;;;;;4979448;28;20485;-65
2021/12/23 06:44:55;;;;;;;0.10;0.10;;;0.40;99.90;;;;;;4978477;28;20085;-65
2021/12/23 06:47:21;;;;;;;0.30;0.30;;;-0.80;99.90;;;;;;4977436;28;20047;-66
2021/12/23 06:49:47;;;;;;;0.00;0.00;;;-0.70;99.90;;;;;;4979174;28;20047;-66
2021/12/23 06:52:13;;;;;;;0.00;0.00;;;-0.70;99.90;;;;;;4979321;28;20100;-64
2021/12/23 06:54:43;;;;;;;0.10;0.10;;;0.00;99.90;;;;;;4978771;28;20046;-65
2021/12/23 06:57:09;;;;;;;0.20;0.20;;;-0.70;99.90;;;;;;4978974;28;20047;-66
2021/12/23 06:59:34;;;;;;;0.00;0.00;;;-0.70;99.90;;;;;;4978777;28;20563;-67
2021/12/23 07:02:00;;;;;;;0.10;0.10;;;-0.70;99.90;;;;;;4978412;28;20058;-66
2021/12/23 07:04:30;;;;;;;0.63;0.63;;;-0.70;99.90;;;;;;4978292;28;20034;-65
2021/12/23 07:07:08;;;;;;;0.30;0.30;;;-0.60;99.90;;;;;;4979055;28;20038;-67
2021/12/23 07:09:36;;;;;;;0.00;0.00;;;-0.60;99.90;;;;;;4978609;28;20053;-67
2021/12/23 07:12:06;;;;;;;0.00;0.00;;;-0.50;99.90;;;;;;4977870;28;20058;-66
2021/12/23 07:14:31;;;;;;;0.00;0.00;;;-0.60;99.90;;;;;;4979015;28;20050;-66
2021/12/23 07:16:57;;;;;;;0.20;0.20;;;-0.10;99.90;;;;;;4977960;28;20100;-65
2021/12/23 07:19:23;;;;;;;0.25;0.25;;;-0.50;99.90;;;;;;4978718;28;20046;-65
2021/12/23 07:21:48;;;;;;;0.00;0.00;;;-0.50;99.90;;;;;;4978088;28;20042;-65
2021/12/23 07:24:14;;;;;;;4.50;1.17;;;-0.30;99.90;;;;;;4978450;28;20537;-66
2021/12/23 07:26:40;;;;;;;2.35;2.22;;;-0.50;99.90;;;;;;4978558;28;20093;-68
2021/12/23 07:29:06;;;;;;;0.30;0.30;;;-0.50;99.90;;;;;;4986794;28;20042;-66
2021/12/23 07:31:31;;;;;;;0.00;0.00;;;0.90;99.90;;;;;;4983694;28;20173;-67
2021/12/23 07:33:57;;;;;;;0.25;0.25;;;0.10;99.90;;;;;;4982219;28;20130;-66
2021/12/23 07:36:24;;;;;;;0.17;0.17;;;-0.50;99.90;;;;;;4982105;28;20112;-66
2021/12/23 07:38:50;;;;;;;0.00;0.00;;;-0.40;99.90;;;;;;4981092;28;20039;-66
2021/12/23 07:41:17;;;;;;;0.00;0.00;;;-0.40;99.90;;;;;;4982278;28;20724;-68
2021/12/23 07:43:55;;;;;;;0.52;0.52;;;0.00;99.90;;;;;;4982570;28;20047;-66
2021/12/23 07:46:21;;;;;;;0.00;0.00;;;-0.40;99.90;;;;;;4979801;28;20696;-67
2021/12/23 07:48:47;;;;;;;0.10;0.10;;;-0.50;99.90;;;;;;4982143;28;20035;-67
2021/12/23 07:51:13;;;;;;;0.00;0.00;;;0.20;99.90;;;;;;4982703;28;20044;-67
2021/12/23 07:53:38;;;;;;;0.00;0.00;;;-0.50;99.90;;;;;;4982609;28;20038;-67
2021/12/23 07:56:04;;;;;;;0.30;0.30;;;-0.40;99.90;;;;;;4980863;28;20120;-68
2021/12/23 07:58:32;;;;;;;0.00;0.00;;;-0.40;99.90;;;;;;4982400;28;20101;-67
2021/12/23 08:00:57;;;;;;;0.38;0.38;;;-0.50;99.90;;;;;;4981350;28;20050;-67
2021/12/23 08:03:23;;;;;;;0.10;0.10;;;-0.40;99.90;;;;;;4980340;28;20053;-69
2021/12/23 08:05:52;;;;;;;0.00;0.00;;;-0.40;99.90;;;;;;4981024;28;20053;-67
2021/12/23 08:08:18;;;;;;;0.05;0.05;;;-0.40;99.90;;;;;;4996919;28;20400;-67
2021/12/23 08:10:44;;;;;;;0.00;0.00;;;-0.40;99.90;;;;;;4983806;28;20573;-67
2021/12/23 08:13:10;;;;;;;0.20;0.20;;;-0.40;99.90;;;;;;4989907;28;20055;-67
2021/12/23 08:15:35;;;;;;;0.00;0.00;;;-0.40;99.90;;;;;;4990112;28;20049;-66
2021/12/23 08:18:01;;;;;;;0.10;0.10;;;-0.40;99.90;;;;;;4991687;28;20493;-67
2021/12/23 08:20:28;;;;;;;0.00;0.00;;;;;;;;;;4986731;28;20050;-67
2021/12/23 08:22:54;;;;;;;0.00;0.00;;;-0.30;99.90;;;;;;4964165;28;20640;-67
2021/12/23 08:25:22;;;;;;;0.10;0.10;;;-1.10;99.90;;;;;;4979385;28;20116;-68
2021/12/23 08:27:48;;;;;;;0.65;0.65;;;-0.30;99.90;;;;;;4983761;28;20039;-65
2021/12/23 08:30:17;;;;;;;0.00;0.00;;;-0.30;99.90;;;;;;4990243;28;20057;-67
2021/12/23 08:32:43;;;;;;;0.68;0.68;;;-0.30;99.90;;;;;;4979807;28;20038;-65
2021/12/23 08:35:10;;;;;;;0.00;0.00;;;-0.30;99.90;;;;;;4981218;28;20046;-68
2021/12/23 08:37:44;;;;;;;0.17;0.17;;;-0.30;99.90;;;;;;4979771;28;20038;-69
2021/12/23 08:40:10;;;;;;;0.00;0.00;;;-0.20;99.90;;;;;;4980836;28;20097;-66
2021/12/23 08:42:36;;;;;;;0.00;0.00;;;-0.30;99.90;;;;;;4980136;28;20121;-66
2021/12/23 08:45:04;;;;;;;0.00;0.00;;;-0.30;99.90;;;;;;4981402;28;20134;-66
2021/12/23 08:47:30;;;;;;;0.10;0.10;;;-0.30;99.90;;;;;;4979743;28;20442;-66
2021/12/23 08:49:56;;;;;;;0.00;0.00;;;-0.30;99.90;;;;;;4980020;28;20117;-66
2021/12/23 08:52:22;;;;;;;0.00;0.00;;;-0.30;99.90;;;;;;4988818;28;20589;-66
2021/12/23 08:54:47;;;;;;;0.00;0.00;;;-0.30;99.90;;;;;;5000438;28;20125;-66
2021/12/23 08:57:13;;;;;;;4.05;3.83;;;-1.90;99.90;;;;;;5000386;28;20049;-68
2021/12/23 08:59:39;;;;;;;0.00;0.00;;;-0.40;99.90;;;;;;4998520;28;20045;-68
2021/12/23 09:02:05;;;;;;;0.10;0.10;;;-0.40;99.90;;;;;;4998170;28;20623;-67
2021/12/23 09:04:30;;;;;;;0.00;0.00;;;-0.40;99.90;;;;;;4999428;28;20041;-67
2021/12/23 09:06:56;;;;;;;0.00;0.00;;;-0.40;99.90;;;;;;5000150;28;20041;-66
2021/12/23 09:09:24;;;;;;;0.00;0.00;;;-0.30;99.90;;;;;;4999592;28;20124;-66
2021/12/23 09:11:50;;;;;;;0.00;0.00;;;-0.40;99.90;;;;;;5000201;28;20073;-66
2021/12/23 09:14:16;;;;;;;0.10;0.10;;;1.40;99.90;;;;;;5000286;28;20042;-67
2021/12/23 09:16:42;;;;;;;0.00;0.00;;;0.60;99.90;;;;;;4999711;28;20046;-66
2021/12/23 09:19:09;;;;;;;0.00;0.00;;;-0.40;99.90;;;;;;4996753;28;20699;-67
2021/12/23 09:21:35;;;;;;;0.03;0.03;;;-0.40;99.90;;;;;;5000148;28;20140;-66
2021/12/23 09:24:03;;;;;;;0.10;0.10;;;-0.40;99.90;;;;;;5000874;28;20129;-66
2021/12/23 09:26:31;;;;;;;0.77;0.77;;;-0.40;99.90;;;;;;5000416;28;20042;-66
2021/12/23 09:29:05;;;;;;;0.10;0.10;;;-0.50;99.90;;;;;;4993773;28;20081;-65
2021/12/23 09:34:15;;;;;;;0.00;0.00;;;-0.40;99.90;;;;;;4979918;28;20047;-65
2021/12/23 09:36:41;;;;;;;0.00;0.00;;;0.10;99.90;;;;;;4980029;28;20448;-66
2021/12/23 09:39:10;;;;;;;0.00;0.00;;;-0.40;99.90;;;;;;4980211;28;20579;-68
2021/12/23 09:41:41;;;;;;;0.00;0.00;;;-0.40;99.90;;;;;;4979802;28;20050;-66
2021/12/23 09:44:09;;;;;;;0.00;0.00;;;-0.40;99.90;;;;;;4982245;28;20046;-65
2021/12/23 09:46:35;;;;;;;0.00;0.00;;;-0.40;99.90;;;;;;4987931;28;20048;-65
2021/12/23 09:49:03;;;;;;;0.00;0.00;;;-0.40;99.90;;;;;;4989382;28;20056;-67
2021/12/23 09:51:32;;;;;;;0.10;0.10;;;-0.20;99.90;;;;;;4996509;28;20504;-65
2021/12/23 09:54:04;;;;;;;0.00;0.00;;;-0.50;99.90;;;;;;4996642;28;20061;-66
2021/12/23 09:56:31;;;;;;;0.10;0.10;;;0.10;99.90;;;;;;4992189;28;20054;-66
2021/12/23 09:58:58;;;;;;;0.75;0.75;;;-0.30;99.90;;;;;;4996782;28;20440;-66
2021/12/23 10:01:29;;;;;;;0.05;0.05;;;-0.40;99.90;;;;;;4988783;28;20053;-66
2021/12/23 10:03:55;;;;;;;0.10;0.10;;;-0.40;99.90;;;;;;4976972;28;20050;-66
2021/12/23 10:06:24;;;;;;;1.75;1.27;;;-1.10;99.90;;;;;;4979183;28;20053;-66
2021/12/23 10:08:50;;;;;;;2.30;1.55;;;-0.30;99.90;;;;;;4994178;28;20048;-65
2021/12/23 10:38:16;;;;;;;0.35;0.35;;;-0.50;99.90;;;;;;4996565;28;20057;-66
2021/12/23 10:40:45;;;;;;;0.45;0.40;;;-0.50;99.90;;;;;;4996053;28;20056;-66
2021/12/23 10:43:29;;;;;;;0.00;0.00;;;-0.50;99.90;;;;;;4997209;28;20444;-68
2021/12/23 10:46:01;;;;;;;0.00;0.00;;;-0.50;99.90;;;;;;4997016;28;20050;-66
2021/12/23 10:48:31;;;;;;;0.00;0.00;;;0.30;99.90;;;;;;4989584;28;20090;-66
2021/12/23 10:51:05;;;;;;;0.00;0.00;;;-0.50;99.90;;;;;;4992018;28;20038;-66
2021/12/23 10:54:17;;;;;;;0.00;0.00;;;-0.50;99.90;;;;;;4988109;28;20503;-66
2021/12/23 10:59:30;;;;;;;0.00;0.00;;;-0.50;99.90;;;;;;4997201;28;20050;-70
2021/12/23 11:02:24;;;;;;;0.10;0.10;;;-0.50;99.90;;;;;;4995792;28;20046;-65
2021/12/23 11:05:00;;;;;;;0.00;0.00;;;-0.50;99.90;;;;;;4996803;28;20054;-66
2021/12/23 11:07:40;;;;;;;0.00;0.00;;;-0.50;99.90;;;;;;5004806;28;20042;-68
2021/12/23 11:10:18;;;;;;;0.00;0.00;;;-0.40;99.90;;;;;;5005262;28;20064;-69
2021/12/23 11:37:58;;;;;;;0.65;0.65;;;-0.10;99.90;;;;;;5002275;28;20064;-70
2021/12/23 11:45:33;;;;;;;1.20;1.17;;;-0.40;99.90;;;;;;5003585;28;20057;-69
2021/12/23 11:48:02;;;;;;;0.00;0.00;;;-0.40;99.90;;;;;;5003615;28;20657;-69
2021/12/23 11:50:41;;;;;;;0.20;0.20;;;-0.40;99.90;;;;;;5004598;28;20128;-70
2021/12/23 11:53:07;;;;;;;0.32;0.32;;;-0.40;99.90;;;;;;4999401;28;20042;-69
2021/12/23 11:55:34;;;;;;;0.00;0.00;;;1.00;99.90;;;;;;4983198;28;20042;-69
2021/12/23 11:58:00;;;;;;;0.10;0.10;;;0.00;99.90;;;;;;4984089;28;20405;-69
2021/12/23 12:00:42;;;;;;;2.72;2.50;;;-0.40;99.90;;;;;;4998099;28;20054;-66
2021/12/23 12:03:10;;;;;;;0.10;0.10;;;-0.10;99.90;;;;;;5003136;28;20077;-66
2021/12/23 12:05:37;;;;;;;0.00;0.00;;;-0.40;99.90;;;;;;5004203;28;20042;-69
2021/12/23 12:08:06;;;;;;;0.00;0.00;;;-0.40;99.90;;;;;;4986083;28;20065;-66
2021/12/23 12:10:33;;;;;;;0.00;0.00;;;-0.40;99.90;;;;;;5002071;28;20125;-67
2021/12/23 12:13:03;;;;;;;0.00;0.00;;;0.10;99.90;;;;;;5002208;28;20498;-63
2021/12/23 12:15:38;;;;;;;0.50;0.50;;;-1.10;99.90;;;;;;5003417;28;20053;-61
2021/12/23 12:18:06;;;;;;;0.00;0.00;;;-0.10;99.90;;;;;;4999737;28;20124;-64
2021/12/23 12:20:45;;;;;;;0.55;0.55;;;-0.10;99.90;;;;;;4999701;28;20061;-67
2021/12/23 12:23:19;;;;;;;0.15;0.15;;;-0.10;99.90;;;;;;4999539;28;20041;-67
2021/12/23 12:25:48;;;;;;;0.00;0.00;;;0.20;99.90;;;;;;4999885;28;20042;-69
2021/12/23 12:28:25;;;;;;;1.13;1.08;;;-0.30;99.90;;;;;;4994215;28;20137;-69
2021/12/23 12:31:07;;;;;;;0.05;0.05;;;-0.30;99.90;;;;;;4990322;28;20050;-69
2021/12/23 12:33:39;;;;;;;0.00;0.00;;;-0.30;99.90;;;;;;4998796;28;20436;-67
2021/12/23 12:36:17;;;;;;;0.00;0.00;;;-0.30;99.90;;;;;;4998341;28;20092;-67
2021/12/23 12:38:46;;;;;;;0.20;0.20;;;-0.30;99.90;;;;;;4999383;28;20185;-69
2021/12/23 12:41:24;;;;;;;0.05;0.05;;;-0.20;99.90;;;;;;4999468;28;20140;-69
2021/12/23 12:43:59;;;;;;;0.10;0.10;;;0.60;99.90;;;;;;4988588;28;20110;-69
2021/12/23 12:46:38;;;;;;;0.00;0.00;;;-0.20;99.90;;;;;;4978522;28;20748;-68
2021/12/23 12:49:11;;;;;;;0.10;0.10;;;-0.20;99.90;;;;;;4979014;28;20042;-68
2021/12/23 12:51:42;;;;;;;0.32;0.32;;;-0.20;99.90;;;;;;4979590;28;20050;-68
2021/12/23 12:54:18;;;;;;;0.00;0.00;;;0.90;99.90;;;;;;4980991;28;20081;-68
2021/12/23 12:56:49;;;;;;;0.00;0.00;;;-0.20;99.90;;;;;;4980626;28;20046;-68
2021/12/23 12:59:17;;;;;;;0.00;0.00;;;-0.10;99.90;;;;;;4979849;28;20046;-68
2021/12/23 13:01:45;;;;;;;0.00;0.00;;;-0.10;99.90;;;;;;4978420;28;20101;-68
2021/12/23 13:04:28;;;;;;;0.00;0.00;;;0.30;99.90;;;;;;4980211;28;20462;-68
2021/12/23 13:06:56;;;;;;;0.00;0.00;;;0.10;99.90;;;;;;4978560;28;20055;-69
2021/12/23 13:09:29;;;;;;;0.17;0.17;;;-0.10;99.90;;;;;;4979239;28;20054;-69
2021/12/23 13:11:58;;;;;;;0.22;0.22;;;-0.10;99.90;;;;;;4979899;28;20058;-69
2021/12/23 13:14:46;;;;;;;0.32;0.32;;;0.80;99.90;;;;;;4979221;28;20117;-69
2021/12/23 13:17:12;;;;;;;0.00;0.00;;;-0.10;99.90;;;;;;4978904;28;20042;-70
2021/12/23 13:19:40;;;;;;;0.00;0.00;;;-0.10;99.90;;;;;;4979748;28;20071;-69
2021/12/23 13:22:10;;;;;;;0.40;0.40;;;-0.10;99.90;;;;;;4980391;28;20053;-69
2021/12/23 13:24:36;;;;;;;0.00;0.00;;;-0.10;99.90;;;;;;4978470;28;20050;-69
2021/12/23 13:27:02;;;;;;;0.70;0.70;;;1.80;99.90;;;;;;4986182;28;20413;-84
2021/12/23 13:29:30;;;;;;;0.00;0.00;;;0.00;99.90;;;;;;4984909;28;20042;-76
2021/12/23 13:31:58;;;;;;;0.00;0.00;;;0.70;99.90;;;;;;4984308;28;20046;-79
2021/12/23 13:34:30;;;;;;;0.22;0.22;;;1.10;99.90;;;;;;4985452;28;20049;-80
2021/12/23 13:37:06;;;;;;;0.00;0.00;;;0.40;99.90;;;;;;4985672;28;20048;-79
2021/12/23 13:39:37;;;;;;;0.00;0.00;;;0.40;99.90;;;;;;4985500;28;20354;-71
2021/12/23 13:42:06;;;;;;;0.00;0.00;;;0.40;99.90;;;;;;4985801;28;20050;-68
2021/12/23 13:44:40;;;;;;;0.00;0.00;;;0.30;99.90;;;;;;4982742;28;20046;-74
2021/12/23 13:47:10;;;;;;;0.00;0.00;;;0.30;99.90;;;;;;4984552;28;20594;-75
2021/12/23 13:49:56;;;;;;;0.00;0.00;;;0.20;99.90;;;;;;4987198;28;20046;-74
2021/12/23 13:52:34;;;;;;;0.00;0.00;;;0.30;99.90;;;;;;4985933;28;20113;-77
2021/12/23 13:55:04;;;;;;;0.00;0.00;;;0.20;99.90;;;;;;4983887;28;20060;-73
2021/12/23 13:57:36;;;;;;;0.10;0.10;;;0.10;99.90;;;;;;4985515;28;20046;-76
2021/12/23 14:00:16;;;;;;;0.00;0.00;;;0.20;99.90;;;;;;4983685;28;20895;-72
2021/12/23 14:02:42;;;;;;;0.00;0.00;;;0.60;99.90;;;;;;4967773;28;20045;-73
2021/12/23 14:05:09;;;;;;;0.00;0.00;;;0.20;99.90;;;;;;4985312;28;20038;-71
2021/12/23 14:07:47;;;;;;;1.20;1.10;;;0.20;99.90;;;;;;4985018;28;20050;-72